sensor_id;sensor_type;location;lat;lon;timestamp;P1;durP1;ratioP1;P2;durP2;ratioP2
36555;SDS011;40859;50.560;7.268;2022-10-04T00:02:17;4.87;;;1.37;;
36555;SDS011;40859;50.560;7.268;2022-10-04T00:05:06;5.93;;;1.92;;
36555;SDS011;40859;50.560;7.268;2022-10-04T00:07:37;4.05;;;2.03;;
36555;SDS011;40859;50.560;7.268;2022-10-04T00:10:17;3.85;;;1.87;;
36555;SDS011;40859;50.560;7.268;2022-10-04T00:12:57;3.70;;;1.60;;
36555;SDS011;40859;50.560;7.268;2022-10-04T00:15:29;5.40;;;1.70;;
36555;SDS011;40859;50.560;7.268;2022-10-04T00:21:04;3.92;;;1.73;;
36555;SDS011;40859;50.560;7.268;2022-10-04T00:34:49;4.12;;;1.95;;
36555;SDS011;40859;50.560;7.268;2022-10-04T00:37:20;3.97;;;2.05;;
36555;SDS011;40859;50.560;7.268;2022-10-04T00:40:49;4.78;;;1.65;;
36555;SDS011;40859;50.560;7.268;2022-10-04T00:43:28;3.95;;;1.67;;
36555;SDS011;40859;50.560;7.268;2022-10-04T00:46:27;4.57;;;1.45;;
36555;SDS011;40859;50.560;7.268;2022-10-04T00:48:55;3.95;;;1.70;;
36555;SDS011;40859;50.560;7.268;2022-10-04T00:51:40;4.50;;;1.70;;
36555;SDS011;40859;50.560;7.268;2022-10-04T00:55:07;3.90;;;1.60;;
36555;SDS011;40859;50.560;7.268;2022-10-04T00:57:43;3.17;;;1.45;;
36555;SDS011;40859;50.560;7.268;2022-10-04T01:00:18;7.70;;;2.10;;
36555;SDS011;40859;50.560;7.268;2022-10-04T01:02:52;2.50;;;1.48;;
36555;SDS011;40859;50.560;7.268;2022-10-04T01:05:27;4.40;;;1.60;;
36555;SDS011;40859;50.560;7.268;2022-10-04T01:08:03;5.50;;;1.87;;
36555;SDS011;40859;50.560;7.268;2022-10-04T01:11:00;2.80;;;1.70;;
36555;SDS011;40859;50.560;7.268;2022-10-04T01:13:34;4.65;;;2.15;;
36555;SDS011;40859;50.560;7.268;2022-10-04T01:16:23;2.62;;;1.80;;
36555;SDS011;40859;50.560;7.268;2022-10-04T01:18:50;5.65;;;2.55;;
36555;SDS011;40859;50.560;7.268;2022-10-04T01:21:22;2.70;;;1.62;;
36555;SDS011;40859;50.560;7.268;2022-10-04T01:27:01;4.28;;;2.10;;
36555;SDS011;40859;50.560;7.268;2022-10-04T01:29:28;3.15;;;1.80;;
36555;SDS011;40859;50.560;7.268;2022-10-04T01:31:56;2.65;;;1.80;;
36555;SDS011;40859;50.560;7.268;2022-10-04T01:34:25;3.80;;;1.77;;
36555;SDS011;40859;50.560;7.268;2022-10-04T01:36:54;3.05;;;1.83;;
36555;SDS011;40859;50.560;7.268;2022-10-04T01:39:22;5.20;;;2.70;;
36555;SDS011;40859;50.560;7.268;2022-10-04T01:41:52;1.55;;;1.40;;
36555;SDS011;40859;50.560;7.268;2022-10-04T01:45:53;5.30;;;2.20;;
36555;SDS011;40859;50.560;7.268;2022-10-04T01:48:23;3.25;;;1.60;;
36555;SDS011;40859;50.560;7.268;2022-10-04T01:50:58;4.97;;;1.73;;
36555;SDS011;40859;50.560;7.268;2022-10-04T01:53:31;2.85;;;1.52;;
36555;SDS011;40859;50.560;7.268;2022-10-04T01:56:09;5.07;;;1.67;;
36555;SDS011;40859;50.560;7.268;2022-10-04T01:58:42;3.75;;;1.83;;
36555;SDS011;40859;50.560;7.268;2022-10-04T02:01:38;2.78;;;2.00;;
36555;SDS011;40859;50.560;7.268;2022-10-04T02:04:31;3.92;;;1.90;;
36555;SDS011;40859;50.560;7.268;2022-10-04T02:07:00;3.97;;;2.10;;
36555;SDS011;40859;50.560;7.268;2022-10-04T02:09:31;4.03;;;2.60;;
36555;SDS011;40859;50.560;7.268;2022-10-04T02:11:59;5.22;;;2.17;;
36555;SDS011;40859;50.560;7.268;2022-10-04T02:14:30;6.32;;;2.47;;
36555;SDS011;40859;50.560;7.268;2022-10-04T02:16:57;4.28;;;2.30;;
36555;SDS011;40859;50.560;7.268;2022-10-04T02:19:27;4.28;;;2.00;;
36555;SDS011;40859;50.560;7.268;2022-10-04T02:21:58;5.30;;;2.12;;
36555;SDS011;40859;50.560;7.268;2022-10-04T02:24:27;3.30;;;1.73;;
36555;SDS011;40859;50.560;7.268;2022-10-04T02:26:53;3.83;;;2.22;;
36555;SDS011;40859;50.560;7.268;2022-10-04T02:29:19;10.20;;;3.65;;
36555;SDS011;40859;50.560;7.268;2022-10-04T02:31:47;10.48;;;2.08;;
36555;SDS011;40859;50.560;7.268;2022-10-04T02:34:32;2.90;;;2.35;;
36555;SDS011;40859;50.560;7.268;2022-10-04T02:37:00;7.68;;;2.42;;
36555;SDS011;40859;50.560;7.268;2022-10-04T02:39:39;3.92;;;2.20;;
36555;SDS011;40859;50.560;7.268;2022-10-04T02:47:19;3.10;;;2.20;;
36555;SDS011;40859;50.560;7.268;2022-10-04T02:49:50;10.25;;;2.60;;
36555;SDS011;40859;50.560;7.268;2022-10-04T02:52:28;5.37;;;2.35;;
36555;SDS011;40859;50.560;7.268;2022-10-04T21:49:39;9.80;;;3.58;;
36555;SDS011;40859;50.560;7.268;2022-10-04T21:52:05;8.40;;;3.37;;
36555;SDS011;40859;50.560;7.268;2022-10-04T21:54:31;15.30;;;4.70;;
36555;SDS011;40859;50.560;7.268;2022-10-04T21:56:57;7.47;;;3.72;;
36555;SDS011;40859;50.560;7.268;2022-10-04T21:59:23;13.52;;;4.07;;
36555;SDS011;40859;50.560;7.268;2022-10-04T22:01:49;8.82;;;3.80;;
36555;SDS011;40859;50.560;7.268;2022-10-04T22:04:15;6.82;;;3.35;;
36555;SDS011;40859;50.560;7.268;2022-10-04T22:06:41;9.73;;;4.25;;
36555;SDS011;40859;50.560;7.268;2022-10-04T22:09:07;8.15;;;4.28;;
36555;SDS011;40859;50.560;7.268;2022-10-04T22:11:33;9.73;;;3.62;;
36555;SDS011;40859;50.560;7.268;2022-10-04T22:14:00;14.85;;;4.40;;
36555;SDS011;40859;50.560;7.268;2022-10-04T22:16:25;8.82;;;4.90;;
36555;SDS011;40859;50.560;7.268;2022-10-04T22:18:51;13.27;;;4.35;;
36555;SDS011;40859;50.560;7.268;2022-10-04T22:21:18;7.05;;;3.62;;
36555;SDS011;40859;50.560;7.268;2022-10-04T22:23:44;10.07;;;3.58;;
36555;SDS011;40859;50.560;7.268;2022-10-04T22:26:13;12.63;;;4.55;;
36555;SDS011;40859;50.560;7.268;2022-10-04T22:28:50;9.30;;;3.70;;
36555;SDS011;40859;50.560;7.268;2022-10-04T22:31:23;7.15;;;3.47;;
36555;SDS011;40859;50.560;7.268;2022-10-04T22:33:51;10.18;;;3.83;;
36555;SDS011;40859;50.560;7.268;2022-10-04T22:36:25;10.48;;;4.00;;
36555;SDS011;40859;50.560;7.268;2022-10-04T22:38:59;7.68;;;3.25;;
36555;SDS011;40859;50.560;7.268;2022-10-04T22:41:38;8.10;;;3.47;;
36555;SDS011;40859;50.560;7.268;2022-10-04T22:44:17;5.85;;;3.80;;
36555;SDS011;40859;50.560;7.268;2022-10-04T22:46:45;5.47;;;3.40;;
36555;SDS011;40859;50.560;7.268;2022-10-04T22:49:15;7.22;;;4.12;;
36555;SDS011;40859;50.560;7.268;2022-10-04T22:51:44;9.25;;;4.10;;
36555;SDS011;40859;50.560;7.268;2022-10-04T22:54:18;7.65;;;3.85;;
36555;SDS011;40859;50.560;7.268;2022-10-04T22:56:45;9.18;;;3.95;;
36555;SDS011;40859;50.560;7.268;2022-10-04T22:59:12;5.75;;;3.58;;
36555;SDS011;40859;50.560;7.268;2022-10-04T23:01:40;7.57;;;3.47;;
36555;SDS011;40859;50.560;7.268;2022-10-04T23:04:11;13.57;;;4.25;;
36555;SDS011;40859;50.560;7.268;2022-10-04T23:06:46;9.52;;;4.72;;
36555;SDS011;40859;50.560;7.268;2022-10-04T23:09:12;9.43;;;3.90;;
36555;SDS011;40859;50.560;7.268;2022-10-04T23:11:38;10.75;;;3.90;;
36555;SDS011;40859;50.560;7.268;2022-10-04T23:14:04;5.00;;;3.47;;
36555;SDS011;40859;50.560;7.268;2022-10-04T23:16:30;5.50;;;3.37;;
36555;SDS011;40859;50.560;7.268;2022-10-04T23:19:00;5.57;;;3.75;;
36555;SDS011;40859;50.560;7.268;2022-10-04T23:21:36;8.27;;;3.95;;
36555;SDS011;40859;50.560;7.268;2022-10-04T23:24:16;9.30;;;3.12;;
36555;SDS011;40859;50.560;7.268;2022-10-04T23:26:53;6.97;;;3.33;;
36555;SDS011;40859;50.560;7.268;2022-10-04T23:29:27;5.22;;;3.03;;
36555;SDS011;40859;50.560;7.268;2022-10-04T23:31:55;5.30;;;3.33;;
36555;SDS011;40859;50.560;7.268;2022-10-04T23:34:32;8.02;;;3.50;;
36555;SDS011;40859;50.560;7.268;2022-10-04T23:36:59;6.90;;;3.55;;
36555;SDS011;40859;50.560;7.268;2022-10-04T23:39:29;6.68;;;3.05;;
36555;SDS011;40859;50.560;7.268;2022-10-04T23:41:58;5.87;;;3.42;;
36555;SDS011;40859;50.560;7.268;2022-10-04T23:44:28;4.45;;;2.65;;
36555;SDS011;40859;50.560;7.268;2022-10-04T23:46:59;6.97;;;3.20;;
36555;SDS011;40859;50.560;7.268;2022-10-04T23:49:25;8.35;;;3.53;;
36555;SDS011;40859;50.560;7.268;2022-10-04T23:51:53;4.75;;;3.10;;
36555;SDS011;40859;50.560;7.268;2022-10-04T23:54:25;7.45;;;3.08;;
36555;SDS011;40859;50.560;7.268;2022-10-04T23:56:51;6.20;;;2.78;;
36555;SDS011;40859;50.560;7.268;2022-10-04T23:59:18;5.45;;;3.20;;
